Kitimat, Canada
Current Conditions -  °F | °C
As of 5:00 PM on Thursday 27 Nov 2014 (Local Time) from CYXT Reporting Station
Broken Clouds Broken Clouds  
Wind Chill: 15°   Ceiling: 7500
Heat Index: 27°   Visibility: 15mi
Dew Point:   Wind: 14mph
Humidity: 43%   Direction: 50°NE
Pressure: 29.77"   Gusts: 21mph
Location:  54°N, 128.7°W
Report Text: CYXT 280100Z 05012G18KT 030V090 15SM BKN075 BKN100 M03/M14 A2977 RMK AC5AC2 SLP091
Loading
Personal Weather Stations






























Interactive Weather Map New forecast layout! Learn more

10-Day Weather Forecast

Advertisements
Track Severe Weather on mobile